Significant Other — WDB7278 — position and weather

sailwx.info

Track history (hours):
 
Tides and Currents Weather Stations Pressure Air Temp Water Temp Dewpoint Dewpoint Depression Visibility Wind Speed Wind Dir Waves Ship Positions

Significant Other

Owner: Miller, Douglas P, Port Orchard, WA. More information available from US FCC via Universal Licensing System and Coast Guard Vessel Documentation Center.

Last reported at 2015-Jan-22 01:14 UTC. Time now 2015-Jan-26 16:33 UTC.
Position N 47°33' W 122°38'.

Length 13 m; draft 2 m.

Type: Sailing vessel. MMSI: 366896730.

Date/timePositionNaut miles runAvg speedWind from/ knotsBaromVisibWave heightAir tempDewpointWater temp
2015-Jan-22 01:14N 47°33' W 122°38'  
2015-Jan-18 21:14N 47°33' W 122°38'2 2.9
2015-Jan-18 20:33N 47°34' W 122°36'4 4.4
2015-Jan-18 19:33N 47°33' W 122°30'1 0.1
2015-Jan-18 09:33N 47°33' W 122°29'0 0.0
2015-Jan-18 08:33N 47°33' W 122°29'0 0.0
2015-Jan-18 07:33N 47°33' W 122°29'0 0.0
2015-Jan-18 06:33N 47°33' W 122°29'0 0.0
2015-Jan-18 05:33N 47°33' W 122°29'0 0.0
2015-Jan-18 04:33N 47°33' W 122°29'0 0.0
2015-Jan-18 03:33N 47°33' W 122°29'0 0.0
2015-Jan-18 02:33N 47°33' W 122°29'0 0.0
2015-Jan-18 01:33N 47°33' W 122°29'0 0.0
2015-Jan-18 00:33N 47°33' W 122°29'1 0.2
2015-Jan-17 21:34N 47°33' W 122°30'4 3.6
2015-Jan-17 20:34N 47°35' W 122°34'4 3.8
2015-Jan-17 19:32N 47°33' W 122°38'  
Track history (hours):
 
Tides and Currents Weather Stations Pressure Air Temp Water Temp Dewpoint Dewpoint Depression Visibility Wind Speed Wind Dir Waves Ship Positions

Significant Other

Owner: Miller, Douglas P, Port Orchard, WA. More information available from US FCC via Universal Licensing System and Coast Guard Vessel Documentation Center.

Last reported at 2015-Jan-22 01:14 UTC. Time now 2015-Jan-26 16:33 UTC.
Position N 47°33' W 122°38'.

Length 13 m; draft 2 m.

Type: Sailing vessel. MMSI: 366896730.

Date/timePositionNaut miles runAvg speedWind from/ knotsBaromVisibWave heightAir tempDewpointWater temp
2015-Jan-22 01:14N 47°33' W 122°38'  
2015-Jan-18 21:14N 47°33' W 122°38'2 2.9
2015-Jan-18 20:33N 47°34' W 122°36'4 4.4
2015-Jan-18 19:33N 47°33' W 122°30'1 0.1
2015-Jan-18 09:33N 47°33' W 122°29'0 0.0
2015-Jan-18 08:33N 47°33' W 122°29'0 0.0
2015-Jan-18 07:33N 47°33' W 122°29'0 0.0
2015-Jan-18 06:33N 47°33' W 122°29'0 0.0
2015-Jan-18 05:33N 47°33' W 122°29'0 0.0
2015-Jan-18 04:33N 47°33' W 122°29'0 0.0
2015-Jan-18 03:33N 47°33' W 122°29'0 0.0
2015-Jan-18 02:33N 47°33' W 122°29'0 0.0
2015-Jan-18 01:33N 47°33' W 122°29'0 0.0
2015-Jan-18 00:33N 47°33' W 122°29'1 0.2
2015-Jan-17 21:34N 47°33' W 122°30'4 3.6
2015-Jan-17 20:34N 47°35' W 122°34'4 3.8
2015-Jan-17 19:32N 47°33' W 122°38'  

Dump ship's entire track history